RSC66FX GCLA-GCXO
Flight info
| Callsign | RSC66FX |
|---|---|
| Flight time | 0h 24m |
| Altitude | 9000 |
| Route | TFN |
| Aircraft | AT76/M-SDFGRY/LB1 |
Departure
| Time | 2026-04-28 18:51 |
|---|---|
| Airport | La Palma Airport (GCLA) |
Arrival
| Time | 2026-04-28 19:16 |
|---|---|
| Airport | Tenerife Norte-Ciudad de La Laguna Airport (GCXO) |
| Time | Latitude | Longitude | Altitude | Speed | Heading |
|---|---|---|---|---|---|
| 2026-04-28 18:35 | 28.62200 | -17.75355 | 111 ft | 0 kts | 89° |
| 2026-04-28 18:47 | 28.62200 | -17.75373 | 144 ft | 5 kts | 89° |
| 2026-04-28 18:47 | 28.62201 | -17.75432 | 108 ft | 6 kts | 130° |
| 2026-04-28 18:47 | 28.62193 | -17.75441 | 109 ft | 9 kts | 180° |
| 2026-04-28 18:47 | 28.62135 | -17.75441 | 111 ft | 11 kts | 180° |
| 2026-04-28 18:48 | 28.62086 | -17.75497 | 112 ft | 10 kts | 272° |
| 2026-04-28 18:48 | 28.62051 | -17.75549 | 114 ft | 12 kts | 185° |
| 2026-04-28 18:48 | 28.61954 | -17.75546 | 112 ft | 16 kts | 178° |
| 2026-04-28 18:48 | 28.61838 | -17.75544 | 111 ft | 18 kts | 179° |
| 2026-04-28 18:49 | 28.61719 | -17.75552 | 107 ft | 14 kts | 200° |
| 2026-04-28 18:49 | 28.61656 | -17.75571 | 108 ft | 11 kts | 178° |
| 2026-04-28 18:49 | 28.61647 | -17.75540 | 108 ft | 0 kts | 14° |
| 2026-04-28 18:49 | 28.61669 | -17.75541 | 107 ft | 3 kts | 358° |
| 2026-04-28 18:50 | 28.61682 | -17.75541 | 109 ft | 1 kts | 358° |
| 2026-04-28 18:50 | 28.61683 | -17.75541 | 109 ft | 0 kts | 358° |
| 2026-04-28 18:50 | 28.61715 | -17.75542 | 109 ft | 25 kts | 359° |
| 2026-04-28 18:50 | 28.62104 | -17.75548 | 113 ft | 85 kts | 359° |
| 2026-04-28 18:51 | 28.62853 | -17.75557 | 199 ft | 122 kts | 1° |
| 2026-04-28 18:51 | 28.63739 | -17.75563 | 573 ft | 129 kts | 1° |
| 2026-04-28 18:51 | 28.64593 | -17.75243 | 922 ft | 142 kts | 40° |
| 2026-04-28 18:51 | 28.64996 | -17.74174 | 1199 ft | 156 kts | 78° |
| 2026-04-28 18:52 | 28.65157 | -17.72906 | 1450 ft | 167 kts | 75° |
| 2026-04-28 18:52 | 28.65295 | -17.71570 | 1704 ft | 176 kts | 87° |
| 2026-04-28 18:52 | 28.65239 | -17.70142 | 1944 ft | 185 kts | 88° |
| 2026-04-28 18:52 | 28.65177 | -17.68672 | 2328 ft | 183 kts | 89° |
| 2026-04-28 18:53 | 28.65085 | -17.67241 | 2789 ft | 180 kts | 89° |
| 2026-04-28 18:53 | 28.64990 | -17.65818 | 3173 ft | 181 kts | 90° |
| 2026-04-28 18:53 | 28.64882 | -17.64389 | 3551 ft | 182 kts | 90° |
| 2026-04-28 18:53 | 28.64772 | -17.62948 | 3928 ft | 184 kts | 90° |
| 2026-04-28 18:54 | 28.64661 | -17.61505 | 4331 ft | 183 kts | 90° |
| 2026-04-28 18:54 | 28.64552 | -17.60058 | 4694 ft | 184 kts | 91° |
| 2026-04-28 18:54 | 28.64437 | -17.58604 | 5060 ft | 184 kts | 91° |
| 2026-04-28 18:54 | 28.64326 | -17.57151 | 5429 ft | 184 kts | 91° |
| 2026-04-28 18:55 | 28.64212 | -17.55711 | 5801 ft | 182 kts | 91° |
| 2026-04-28 18:55 | 28.64139 | -17.54760 | 6032 ft | 182 kts | 91° |
| 2026-04-28 18:55 | 28.63990 | -17.52839 | 6511 ft | 182 kts | 91° |
| 2026-04-28 18:55 | 28.63878 | -17.51404 | 6827 ft | 182 kts | 91° |
| 2026-04-28 18:56 | 28.63757 | -17.49959 | 7118 ft | 185 kts | 91° |
| 2026-04-28 18:56 | 28.63632 | -17.48494 | 7401 ft | 187 kts | 91° |
| 2026-04-28 18:56 | 28.63504 | -17.47014 | 7687 ft | 189 kts | 91° |
| 2026-04-28 18:56 | 28.63381 | -17.45540 | 7970 ft | 190 kts | 91° |
| 2026-04-28 18:57 | 28.63259 | -17.44016 | 8254 ft | 192 kts | 91° |
| 2026-04-28 18:57 | 28.63142 | -17.42510 | 8525 ft | 194 kts | 91° |
| 2026-04-28 18:57 | 28.63021 | -17.40952 | 8816 ft | 196 kts | 90° |
| 2026-04-28 18:57 | 28.62900 | -17.39375 | 8944 ft | 205 kts | 91° |
| 2026-04-28 18:58 | 28.62770 | -17.37712 | 9002 ft | 217 kts | 91° |
| 2026-04-28 18:58 | 28.62634 | -17.35981 | 9025 ft | 228 kts | 91° |
| 2026-04-28 18:58 | 28.62492 | -17.34153 | 9036 ft | 237 kts | 91° |
| 2026-04-28 18:58 | 28.62342 | -17.32257 | 9046 ft | 243 kts | 91° |
| 2026-04-28 18:59 | 28.62189 | -17.30320 | 9043 ft | 248 kts | 91° |
| 2026-04-28 18:59 | 28.62034 | -17.28348 | 9044 ft | 252 kts | 92° |
| 2026-04-28 18:59 | 28.61877 | -17.26354 | 9040 ft | 254 kts | 92° |
| 2026-04-28 18:59 | 28.61721 | -17.24341 | 9046 ft | 256 kts | 92° |
| 2026-04-28 19:00 | 28.61559 | -17.22318 | 9041 ft | 258 kts | 92° |
| 2026-04-28 19:00 | 28.61401 | -17.20284 | 9045 ft | 259 kts | 92° |
| 2026-04-28 19:00 | 28.61238 | -17.18244 | 9044 ft | 259 kts | 92° |
| 2026-04-28 19:00 | 28.61073 | -17.16195 | 9044 ft | 260 kts | 92° |
| 2026-04-28 19:01 | 28.60910 | -17.14145 | 9044 ft | 261 kts | 92° |
| 2026-04-28 19:01 | 28.60748 | -17.12088 | 9047 ft | 261 kts | 92° |
| 2026-04-28 19:01 | 28.60584 | -17.10032 | 9047 ft | 261 kts | 92° |
| 2026-04-28 19:01 | 28.60418 | -17.07975 | 9041 ft | 261 kts | 92° |
| 2026-04-28 19:02 | 28.60250 | -17.05914 | 9040 ft | 262 kts | 92° |
| 2026-04-28 19:02 | 28.60084 | -17.03850 | 9043 ft | 262 kts | 92° |
| 2026-04-28 19:02 | 28.59919 | -17.01788 | 9040 ft | 262 kts | 92° |
| 2026-04-28 19:02 | 28.59752 | -16.99727 | 9039 ft | 262 kts | 92° |
| 2026-04-28 19:03 | 28.59584 | -16.97666 | 9041 ft | 262 kts | 92° |
| 2026-04-28 19:03 | 28.59416 | -16.95600 | 9044 ft | 262 kts | 92° |
| 2026-04-28 19:03 | 28.59247 | -16.93538 | 9039 ft | 262 kts | 92° |
| 2026-04-28 19:03 | 28.59080 | -16.91480 | 9040 ft | 261 kts | 92° |
| 2026-04-28 19:04 | 28.58911 | -16.89421 | 9040 ft | 261 kts | 92° |
| 2026-04-28 19:04 | 28.58746 | -16.87390 | 9035 ft | 261 kts | 92° |
| 2026-04-28 19:04 | 28.58581 | -16.85305 | 9052 ft | 262 kts | 93° |
| 2026-04-28 19:04 | 28.58422 | -16.83265 | 9050 ft | 262 kts | 93° |
| 2026-04-28 19:05 | 28.58262 | -16.81168 | 9047 ft | 263 kts | 93° |
| 2026-04-28 19:05 | 28.58098 | -16.79096 | 9050 ft | 263 kts | 93° |
| 2026-04-28 19:05 | 28.57908 | -16.77061 | 9048 ft | 261 kts | 99° |
| 2026-04-28 19:05 | 28.57255 | -16.75134 | 9046 ft | 263 kts | 114° |
| 2026-04-28 19:06 | 28.56451 | -16.73262 | 9051 ft | 264 kts | 115° |
| 2026-04-28 19:06 | 28.55894 | -16.72005 | 9045 ft | 264 kts | 115° |
| 2026-04-28 19:06 | 28.54791 | -16.69562 | 9045 ft | 265 kts | 116° |
| 2026-04-28 19:06 | 28.53970 | -16.67713 | 9053 ft | 266 kts | 113° |
| 2026-04-28 19:07 | 28.53212 | -16.65799 | 9054 ft | 265 kts | 112° |
| 2026-04-28 19:07 | 28.52482 | -16.63881 | 9052 ft | 266 kts | 111° |
| 2026-04-28 19:07 | 28.51752 | -16.61937 | 9048 ft | 266 kts | 111° |
| 2026-04-28 19:07 | 28.51029 | -16.60000 | 9055 ft | 266 kts | 111° |
| 2026-04-28 19:08 | 28.50307 | -16.58062 | 9060 ft | 267 kts | 111° |
| 2026-04-28 19:08 | 28.49583 | -16.56118 | 9053 ft | 267 kts | 111° |
| 2026-04-28 19:08 | 28.48858 | -16.54172 | 9055 ft | 267 kts | 111° |
| 2026-04-28 19:08 | 28.48136 | -16.52228 | 9052 ft | 267 kts | 111° |
| 2026-04-28 19:09 | 28.47411 | -16.50279 | 9034 ft | 268 kts | 111° |
| 2026-04-28 19:09 | 28.46673 | -16.48290 | 8784 ft | 277 kts | 111° |
| 2026-04-28 19:09 | 28.45915 | -16.46247 | 8534 ft | 283 kts | 111° |
| 2026-04-28 19:09 | 28.45145 | -16.44168 | 8304 ft | 288 kts | 111° |
| 2026-04-28 19:10 | 28.44368 | -16.42072 | 8168 ft | 285 kts | 111° |
| 2026-04-28 19:10 | 28.43606 | -16.40044 | 8106 ft | 273 kts | 111° |
| 2026-04-28 19:10 | 28.42879 | -16.38105 | 8068 ft | 262 kts | 111° |
| 2026-04-28 19:10 | 28.42173 | -16.36234 | 7934 ft | 257 kts | 111° |
| 2026-04-28 19:11 | 28.41470 | -16.34357 | 7605 ft | 260 kts | 111° |
| 2026-04-28 19:11 | 28.40761 | -16.32466 | 7280 ft | 261 kts | 111° |
| 2026-04-28 19:11 | 28.40051 | -16.30571 | 6973 ft | 261 kts | 111° |
| 2026-04-28 19:11 | 28.39339 | -16.28681 | 6673 ft | 256 kts | 111° |
| 2026-04-28 19:12 | 28.38947 | -16.26770 | 6081 ft | 251 kts | 85° |
| 2026-04-28 19:12 | 28.39478 | -16.24936 | 5643 ft | 242 kts | 55° |
| 2026-04-28 19:12 | 28.40636 | -16.23584 | 4931 ft | 239 kts | 32° |
| 2026-04-28 19:12 | 28.42124 | -16.22865 | 4133 ft | 227 kts | 11° |
| 2026-04-28 19:13 | 28.43623 | -16.22807 | 3509 ft | 209 kts | 347° |
| 2026-04-28 19:13 | 28.44909 | -16.23518 | 2744 ft | 200 kts | 316° |
| 2026-04-28 19:13 | 28.45298 | -16.24906 | 2346 ft | 176 kts | 278° |
| 2026-04-28 19:13 | 28.45526 | -16.26225 | 2114 ft | 167 kts | 285° |
| 2026-04-28 19:14 | 28.45929 | -16.27344 | 2238 ft | 145 kts | 298° |
| 2026-04-28 19:14 | 28.46356 | -16.28312 | 2425 ft | 125 kts | 289° |
| 2026-04-28 19:14 | 28.46598 | -16.29224 | 2388 ft | 120 kts | 292° |
| 2026-04-28 19:14 | 28.46905 | -16.30118 | 2305 ft | 125 kts | 294° |
| 2026-04-28 19:15 | 28.47212 | -16.31029 | 2289 ft | 121 kts | 292° |
| 2026-04-28 19:15 | 28.47512 | -16.31903 | 2185 ft | 118 kts | 291° |
| 2026-04-28 19:15 | 28.47806 | -16.32776 | 2050 ft | 119 kts | 291° |
| 2026-04-28 19:15 | 28.47998 | -16.33344 | 2026 ft | 106 kts | 291° |
| 2026-04-28 19:16 | 28.48230 | -16.34042 | 2052 ft | 27 kts | 291° |
| 2026-04-28 19:16 | 28.48305 | -16.34136 | 2055 ft | 10 kts | 321° |
| 2026-04-28 19:16 | 28.48344 | -16.34172 | 2056 ft | 5 kts | 321° |
| 2026-04-28 19:16 | 28.48371 | -16.34196 | 2057 ft | 9 kts | 321° |
| 2026-04-28 19:17 | 28.48423 | -16.34276 | 2059 ft | 11 kts | 290° |
| 2026-04-28 19:17 | 28.48443 | -16.34334 | 2060 ft | 6 kts | 291° |
| 2026-04-28 19:17 | 28.48470 | -16.34416 | 2062 ft | 14 kts | 290° |
| 2026-04-28 19:17 | 28.48507 | -16.34529 | 2064 ft | 16 kts | 290° |
| 2026-04-28 19:18 | 28.48546 | -16.34631 | 2065 ft | 4 kts | 324° |
| 2026-04-28 19:18 | 28.48570 | -16.34628 | 2065 ft | 8 kts | 15° |
| 2026-04-28 19:18 | 28.48626 | -16.34604 | 2065 ft | 9 kts | 20° |
| 2026-04-28 19:18 | 28.48656 | -16.34591 | 2065 ft | 2 kts | 20° |
| 2026-04-28 19:19 | 28.48657 | -16.34591 | 2065 ft | 0 kts | 20° |